createdAt,value
2018-05-04T00:02:01.088Z,8.10
2018-05-04T00:04:28.767Z,8.00
2018-05-04T00:06:56.398Z,7.90
2018-05-04T00:09:24.035Z,7.80
2018-05-04T00:11:52.459Z,7.60
2018-05-04T00:14:20.095Z,7.60
2018-05-04T00:16:47.778Z,7.60
2018-05-04T00:19:15.415Z,7.60
2018-05-04T00:21:43.078Z,7.60
2018-05-04T00:24:10.711Z,7.60
2018-05-04T00:26:40.088Z,7.50
2018-05-04T00:29:08.253Z,7.50
2018-05-04T00:31:35.930Z,7.40
2018-05-04T00:34:03.577Z,7.30
2018-05-04T00:36:31.246Z,7.20
2018-05-04T00:38:58.898Z,7.20
2018-05-04T00:41:26.555Z,7.10
2018-05-04T00:43:54.192Z,7.00
2018-05-04T00:46:21.864Z,6.90
2018-05-04T00:48:49.525Z,6.90
2018-05-04T00:51:17.194Z,6.80
2018-05-04T00:53:56.789Z,6.80
2018-05-04T00:56:24.472Z,6.80
2018-05-04T00:58:52.164Z,6.70
2018-05-04T01:01:19.823Z,6.60
2018-05-04T01:03:47.482Z,6.60
2018-05-04T01:06:15.153Z,6.50
2018-05-04T01:08:42.830Z,6.50
2018-05-04T01:11:10.467Z,6.50
2018-05-04T01:13:39.150Z,6.50
2018-05-04T01:16:06.805Z,6.50
2018-05-04T01:18:34.491Z,6.50
2018-05-04T01:21:02.141Z,6.40
2018-05-04T01:23:29.820Z,6.40
2018-05-04T01:25:58.249Z,6.30
2018-05-04T01:28:25.911Z,6.30
2018-05-04T01:30:53.553Z,6.30
2018-05-04T01:33:21.256Z,6.20
2018-05-04T01:35:48.911Z,6.20
2018-05-04T01:38:16.615Z,6.00
2018-05-04T01:40:45.034Z,5.90
2018-05-04T01:43:12.671Z,5.90
2018-05-04T01:45:41.102Z,5.80
2018-05-04T01:48:09.866Z,5.80
2018-05-04T01:50:38.259Z,5.70
2018-05-04T01:53:05.911Z,5.70
2018-05-04T01:55:33.590Z,5.70
2018-05-04T01:58:01.231Z,5.70
2018-05-04T02:00:28.910Z,5.60
2018-05-04T02:02:56.566Z,5.60
2018-05-04T02:05:24.236Z,5.60
2018-05-04T02:07:51.901Z,5.60
2018-05-04T02:10:19.570Z,5.50
2018-05-04T02:12:47.220Z,5.40
2018-05-04T02:15:15.686Z,5.30
2018-05-04T02:17:43.350Z,5.30
2018-05-04T02:20:11.004Z,5.30
2018-05-04T02:22:39.673Z,5.20
2018-05-04T02:25:07.380Z,5.20
2018-05-04T02:27:35.823Z,5.10
2018-05-04T02:30:04.331Z,5.10
2018-05-04T02:32:31.983Z,5.10
2018-05-04T02:34:59.636Z,5.10
2018-05-04T02:37:27.314Z,5.10
2018-05-04T02:39:54.970Z,5.10
2018-05-04T02:42:22.645Z,5.10
2018-05-04T02:44:50.288Z,5.00
2018-05-04T02:47:17.963Z,5.00
2018-05-04T02:49:45.620Z,5.00
2018-05-04T02:52:13.290Z,5.00
2018-05-04T02:54:40.936Z,4.90
2018-05-04T02:57:10.001Z,4.90
2018-05-04T02:59:38.286Z,4.80
2018-05-04T03:02:05.953Z,4.80
2018-05-04T03:04:33.609Z,4.80
2018-05-04T03:07:01.293Z,4.70
2018-05-04T03:09:28.947Z,4.70
2018-05-04T03:11:56.621Z,4.70
2018-05-04T03:14:24.256Z,4.70
2018-05-04T03:16:51.941Z,4.60
2018-05-04T03:19:19.601Z,4.60
2018-05-04T03:21:47.253Z,4.50
2018-05-04T03:24:14.925Z,4.50
2018-05-04T03:26:42.577Z,4.50
2018-05-04T03:29:10.250Z,4.40
2018-05-04T03:31:38.308Z,4.40
2018-05-04T03:34:05.978Z,4.40
2018-05-04T03:36:33.618Z,4.20
2018-05-04T03:39:01.279Z,4.10
2018-05-04T03:41:28.932Z,4.10
2018-05-04T03:43:56.607Z,4.20
2018-05-04T03:46:25.105Z,4.10
2018-05-04T03:48:52.773Z,4.10
2018-05-04T03:51:20.436Z,4.10
2018-05-04T03:53:48.116Z,4.10
2018-05-04T03:56:16.526Z,4.10
2018-05-04T03:58:56.194Z,4.10
2018-05-04T04:01:35.849Z,4.10
2018-05-04T04:04:14.530Z,4.20
2018-05-04T04:06:42.237Z,4.20
2018-05-04T04:09:09.895Z,4.20
2018-05-04T04:11:38.263Z,4.20
2018-05-04T04:14:05.919Z,4.20
2018-05-04T04:16:34.347Z,4.20
2018-05-04T04:19:02.769Z,4.30
2018-05-04T04:21:30.446Z,4.30
2018-05-04T04:23:58.097Z,4.30
2018-05-04T04:26:25.779Z,4.30
2018-05-04T04:28:53.437Z,4.30
2018-05-04T04:31:21.113Z,4.40
2018-05-04T04:33:48.766Z,4.40
2018-05-04T04:36:16.439Z,4.50
2018-05-04T04:38:44.119Z,4.50
2018-05-04T04:41:12.591Z,4.70
2018-05-04T04:43:41.010Z,4.70
2018-05-04T04:46:09.645Z,4.70
2018-05-04T04:48:37.314Z,4.70
2018-05-04T04:51:05.711Z,4.80
2018-05-04T04:53:33.388Z,4.80
2018-05-04T04:56:01.044Z,4.90
2018-05-04T04:58:28.720Z,4.90
2018-05-04T05:00:56.355Z,5.00
2018-05-04T05:03:24.779Z,5.20
2018-05-04T05:05:52.425Z,5.20
2018-05-04T05:08:20.099Z,5.30
2018-05-04T05:10:47.753Z,5.30
2018-05-04T05:13:15.427Z,5.40
2018-05-04T05:15:43.086Z,5.50
2018-05-04T05:18:10.762Z,5.60
2018-05-04T05:20:39.168Z,5.70
2018-05-04T05:23:08.426Z,5.90
2018-05-04T05:25:36.085Z,5.90
2018-05-04T05:28:03.756Z,6.00
2018-05-04T05:30:31.409Z,6.10
2018-05-04T05:32:59.070Z,6.20
2018-05-04T05:35:26.737Z,6.30
2018-05-04T05:37:54.408Z,6.40
2018-05-04T05:40:22.078Z,6.50
2018-05-04T05:42:49.734Z,6.60
2018-05-04T05:45:17.418Z,6.70
2018-05-04T05:47:45.838Z,7.00
2018-05-04T05:50:13.523Z,6.90
2018-05-04T05:52:41.169Z,7.10
2018-05-04T05:55:08.861Z,7.20
2018-05-04T05:57:36.546Z,7.40
2018-05-04T06:00:04.999Z,7.80
2018-05-04T06:02:32.656Z,7.80
2018-05-04T06:05:00.333Z,8.00
2018-05-04T06:07:28.087Z,8.20
2018-05-04T06:09:55.774Z,8.40
2018-05-04T06:12:24.204Z,9.00
2018-05-04T06:14:51.900Z,8.90
2018-05-04T06:17:19.561Z,9.20
2018-05-04T06:19:47.223Z,9.40
2018-05-04T06:22:14.906Z,9.70
2018-05-04T06:24:43.346Z,10.30
2018-05-04T06:27:11.038Z,10.30
2018-05-04T06:29:40.124Z,10.80
2018-05-04T06:32:10.068Z,11.10
2018-05-04T06:34:40.037Z,11.40
2018-05-04T06:37:08.499Z,11.40
2018-05-04T06:39:36.200Z,11.60
2018-05-04T06:42:03.850Z,11.90
2018-05-04T06:44:31.506Z,12.20
2018-05-04T06:46:59.189Z,12.50
2018-05-04T06:49:27.597Z,13.00
2018-05-04T06:51:55.283Z,13.00
2018-05-04T06:54:22.947Z,13.30
2018-05-04T06:56:50.634Z,13.50
2018-05-04T06:59:18.370Z,13.60
2018-05-04T07:01:46.011Z,13.70
2018-05-04T07:04:13.678Z,13.80
2018-05-04T07:06:41.362Z,13.90
2018-05-04T07:09:09.019Z,14.20
2018-05-04T07:11:36.701Z,14.40
2018-05-04T07:14:04.364Z,14.70
2018-05-04T07:16:32.067Z,15.00
2018-05-04T07:18:59.731Z,15.00
2018-05-04T07:21:27.371Z,14.80
2018-05-04T07:23:55.825Z,15.50
2018-05-04T07:26:23.493Z,15.50
2018-05-04T07:28:51.170Z,14.70
2018-05-04T07:31:19.604Z,15.30
2018-05-04T07:33:47.298Z,15.20
2018-05-04T07:36:14.942Z,15.40
2018-05-04T07:38:42.619Z,15.50
2018-05-04T07:41:10.262Z,15.90
2018-05-04T07:43:37.943Z,15.70
2018-05-04T07:46:05.604Z,15.50
2018-05-04T07:48:33.280Z,15.90
2018-05-04T07:51:01.729Z,16.80
2018-05-04T07:53:29.390Z,16.70
2018-05-04T07:55:57.061Z,16.90
2018-05-04T07:58:24.722Z,16.80
2018-05-04T08:00:52.401Z,17.10
2018-05-04T08:03:20.830Z,17.10
2018-05-04T08:05:48.522Z,17.10
2018-05-04T08:08:16.185Z,17.40
2018-05-04T08:10:43.858Z,17.30
2018-05-04T08:13:12.284Z,17.20
2018-05-04T08:15:39.992Z,17.20
2018-05-04T08:18:08.546Z,17.40
2018-05-04T08:20:36.235Z,17.30
2018-05-04T08:23:03.880Z,17.00
2018-05-04T08:25:31.567Z,17.30
2018-05-04T08:27:59.978Z,17.50
2018-05-04T08:30:27.671Z,17.50
2018-05-04T08:32:55.342Z,17.60
2018-05-04T08:35:23.040Z,17.40
2018-05-04T08:37:51.457Z,17.40
2018-05-04T08:40:19.123Z,17.40
2018-05-04T08:42:46.763Z,17.80
2018-05-04T08:45:14.424Z,18.10
2018-05-04T08:47:42.094Z,18.20
2018-05-04T08:50:09.932Z,18.00
2018-05-04T08:52:39.142Z,17.80
2018-05-04T08:55:06.803Z,17.80
2018-05-04T08:57:34.480Z,18.20
2018-05-04T09:00:02.165Z,18.50
2018-05-04T09:02:29.846Z,18.40
2018-05-04T09:04:57.509Z,18.40
2018-05-04T09:07:25.177Z,18.70
2018-05-04T09:09:52.830Z,19.00
2018-05-04T09:12:20.514Z,19.00
2018-05-04T09:14:48.937Z,18.60
2018-05-04T09:17:16.642Z,18.60
2018-05-04T09:19:45.088Z,18.90
2018-05-04T09:22:12.738Z,18.90
2018-05-04T09:24:40.723Z,19.20
2018-05-04T09:27:09.153Z,19.00
2018-05-04T09:29:38.219Z,18.80
2018-05-04T09:32:05.877Z,18.80
2018-05-04T09:34:33.577Z,18.20
2018-05-04T09:37:01.237Z,18.00
2018-05-04T09:39:28.930Z,18.00
2018-05-04T09:41:56.621Z,17.60
2018-05-04T09:44:24.301Z,17.50
2018-05-04T09:46:52.713Z,18.80
2018-05-04T09:49:20.423Z,18.80
2018-05-04T09:51:48.086Z,19.60
2018-05-04T09:54:15.797Z,20.00
2018-05-04T09:56:43.458Z,19.10
2018-05-04T09:59:11.183Z,19.10
2018-05-04T10:01:38.839Z,19.60
2018-05-04T10:04:06.549Z,19.50
2018-05-04T10:06:34.205Z,18.90
2018-05-04T10:09:01.927Z,19.10
2018-05-04T10:11:29.625Z,19.70
2018-05-04T10:13:57.289Z,19.90
2018-05-04T10:16:24.974Z,20.30
2018-05-04T10:18:52.646Z,20.60
2018-05-04T10:21:20.327Z,20.20
2018-05-04T10:23:48.003Z,20.70
2018-05-04T10:26:15.679Z,20.90
2018-05-04T10:28:44.102Z,19.70
2018-05-04T10:31:11.790Z,19.70
2018-05-04T10:33:40.284Z,19.30
2018-05-04T10:36:07.975Z,19.50
2018-05-04T10:38:35.730Z,20.20
2018-05-04T10:41:03.319Z,20.10
2018-05-04T10:43:30.975Z,19.70
2018-05-04T10:45:58.644Z,20.00
2018-05-04T10:48:26.319Z,19.90
2018-05-04T10:50:54.000Z,20.50
2018-05-04T10:53:21.693Z,20.80
2018-05-04T10:55:50.127Z,21.50
2018-05-04T10:58:17.804Z,21.40
2018-05-04T11:00:45.471Z,21.40
2018-05-04T11:03:13.166Z,20.90
2018-05-04T11:05:40.822Z,21.50
2018-05-04T11:08:10.581Z,20.70
2018-05-04T11:10:39.385Z,20.60
2018-05-04T11:13:07.057Z,21.10
2018-05-04T11:15:34.724Z,21.30
2018-05-04T11:18:03.189Z,20.90
2018-05-04T11:20:30.845Z,20.90
2018-05-04T11:22:58.529Z,21.30
2018-05-04T11:25:26.966Z,21.90
2018-05-04T11:27:54.651Z,21.90
2018-05-04T11:30:22.309Z,22.40
2018-05-04T11:32:49.983Z,22.70
2018-05-04T11:35:17.648Z,22.70
2018-05-04T11:37:45.350Z,22.70
2018-05-04T11:40:13.006Z,22.60
2018-05-04T11:42:40.666Z,22.50
2018-05-04T11:45:09.141Z,22.70
2018-05-04T11:47:36.780Z,22.80
2018-05-04T11:50:05.218Z,23.40
2018-05-04T11:52:32.871Z,23.40
2018-05-04T11:55:00.549Z,22.80
2018-05-04T11:57:28.230Z,22.00
2018-05-04T11:59:55.906Z,22.80
2018-05-04T12:02:24.404Z,22.10
2018-05-04T12:04:52.067Z,22.00
2018-05-04T12:07:19.746Z,22.30
2018-05-04T12:09:47.446Z,22.40
2018-05-04T12:12:15.112Z,23.00
2018-05-04T12:14:42.794Z,23.20
2018-05-04T12:17:11.203Z,23.40
2018-05-04T12:19:38.881Z,23.30
2018-05-04T12:22:06.538Z,22.90
2018-05-04T12:24:34.198Z,22.20
2018-05-04T12:27:01.887Z,22.70
2018-05-04T12:29:29.546Z,22.70
2018-05-04T12:31:57.269Z,23.10
2018-05-04T12:34:24.926Z,22.60
2018-05-04T12:36:52.607Z,23.00
2018-05-04T12:39:20.253Z,23.10
2018-05-04T12:41:47.952Z,22.50
2018-05-04T12:44:15.618Z,23.10
2018-05-04T12:46:43.324Z,23.40
2018-05-04T12:49:11.756Z,22.70
2018-05-04T12:51:40.090Z,22.70
2018-05-04T12:54:08.257Z,21.70
2018-05-04T12:56:36.696Z,21.70
2018-05-04T12:59:04.344Z,21.70
2018-05-04T13:01:32.032Z,22.50
2018-05-04T13:03:59.689Z,23.00
2018-05-04T13:06:27.407Z,22.90
2018-05-04T13:08:55.829Z,21.80
2018-05-04T13:11:23.523Z,21.70
2018-05-04T13:13:51.950Z,22.30
2018-05-04T13:16:19.596Z,22.30
2018-05-04T13:18:47.274Z,23.00
2018-05-04T13:21:14.938Z,23.10
2018-05-04T13:23:42.622Z,22.40
2018-05-04T13:26:10.308Z,22.30
2018-05-04T13:28:39.677Z,22.70
2018-05-04T13:31:07.330Z,22.60
2018-05-04T13:33:35.013Z,22.50
2018-05-04T13:36:02.694Z,22.20
2018-05-04T13:38:31.144Z,23.40
2018-05-04T13:40:58.805Z,23.40
2018-05-04T13:43:26.489Z,22.20
2018-05-04T13:45:54.938Z,23.00
2018-05-04T13:48:22.626Z,23.00
2018-05-04T13:50:51.154Z,23.60
2018-05-04T13:53:19.703Z,23.30
2018-05-04T13:55:47.362Z,23.30
2018-05-04T13:58:15.797Z,23.80
2018-05-04T14:00:43.471Z,23.80
2018-05-04T14:03:11.146Z,24.10
2018-05-04T14:05:38.854Z,24.50
2018-05-04T14:08:06.519Z,24.50
2018-05-04T14:10:34.213Z,24.20
2018-05-04T14:13:01.872Z,24.30
2018-05-04T14:15:29.540Z,23.70
2018-05-04T14:17:57.206Z,22.30
2018-05-04T14:20:24.897Z,21.80
2018-05-04T14:22:52.558Z,22.00
2018-05-04T14:25:20.999Z,22.90
2018-05-04T14:27:48.740Z,22.80
2018-05-04T14:30:16.424Z,23.70
2018-05-04T14:32:44.087Z,23.60
2018-05-04T14:35:11.771Z,23.90
2018-05-04T14:37:40.204Z,23.00
2018-05-04T14:40:08.325Z,22.90
2018-05-04T14:42:36.765Z,22.60
2018-05-04T14:45:04.434Z,22.60
2018-05-04T14:47:32.117Z,23.00
2018-05-04T14:49:59.769Z,24.20
2018-05-04T14:52:27.450Z,25.10
2018-05-04T14:54:55.874Z,24.40
2018-05-04T14:57:23.558Z,24.40
2018-05-04T14:59:51.213Z,24.80
2018-05-04T15:02:18.901Z,24.90
2018-05-04T15:04:46.565Z,25.20
2018-05-04T15:07:14.253Z,25.40
2018-05-04T15:09:41.937Z,25.70
2018-05-04T15:12:10.332Z,25.80
2018-05-04T15:14:38.365Z,25.70
2018-05-04T15:17:06.041Z,26.00
2018-05-04T15:19:33.676Z,25.80
2018-05-04T15:22:02.116Z,26.20
2018-05-04T15:24:29.775Z,26.20
2018-05-04T15:26:57.463Z,26.60
2018-05-04T15:29:25.120Z,26.60
2018-05-04T15:31:52.777Z,26.50
2018-05-04T15:34:20.448Z,26.00
2018-05-04T15:36:48.209Z,26.20
2018-05-04T15:39:15.894Z,26.90
2018-05-04T15:41:44.302Z,26.80
2018-05-04T15:44:11.980Z,26.80
2018-05-04T15:46:40.787Z,26.10
2018-05-04T15:49:14.218Z,27.00
2018-05-04T15:51:48.329Z,26.70
2018-05-04T15:54:16.050Z,26.70
2018-05-04T15:56:43.715Z,27.60
2018-05-04T15:59:11.401Z,28.10
2018-05-04T16:01:40.570Z,26.90
2018-05-04T16:04:09.364Z,26.80
2018-05-04T16:06:37.029Z,27.50
2018-05-04T16:09:05.711Z,27.50
2018-05-04T16:11:33.375Z,27.30
2018-05-04T16:14:01.038Z,28.00
2018-05-04T16:16:28.723Z,27.80
2018-05-04T16:18:57.150Z,28.30
2018-05-04T16:21:24.823Z,28.20
2018-05-04T16:23:52.482Z,29.20
2018-05-04T16:26:20.166Z,29.80
2018-05-04T16:28:47.836Z,30.50
2018-05-04T16:31:16.282Z,28.80
2018-05-04T16:33:43.943Z,28.70
2018-05-04T16:36:11.608Z,29.90
2018-05-04T16:38:40.465Z,30.20
2018-05-04T16:41:09.299Z,30.30
2018-05-04T16:43:38.288Z,30.00
2018-05-04T16:46:06.787Z,29.50
2018-05-04T16:51:42.973Z,30.20
2018-05-04T16:54:10.625Z,29.90
2018-05-04T16:56:38.782Z,28.50
2018-05-04T16:59:06.443Z,29.30
2018-05-04T17:01:34.134Z,29.70
2018-05-04T17:04:02.594Z,29.30
2018-05-04T17:06:30.319Z,29.30
2018-05-04T17:08:58.076Z,29.40
2018-05-04T17:11:25.737Z,28.50
2018-05-04T17:13:53.422Z,27.70
2018-05-04T17:16:21.084Z,27.10
2018-05-04T17:18:48.762Z,25.80
2018-05-04T17:21:16.423Z,25.20
2018-05-04T17:23:44.107Z,24.50
2018-05-04T17:26:12.530Z,23.30
2018-05-04T17:28:40.273Z,23.20
2018-05-04T17:31:08.383Z,22.80
2018-05-04T17:33:36.071Z,22.70
2018-05-04T17:36:03.803Z,22.40
2018-05-04T17:38:31.498Z,21.90
2018-05-04T17:40:59.152Z,21.70
2018-05-04T17:43:26.831Z,21.40
2018-05-04T17:45:55.259Z,20.90
2018-05-04T17:48:22.944Z,20.90
2018-05-04T17:50:50.589Z,20.70
2018-05-04T17:53:18.277Z,20.20
2018-05-04T17:55:45.982Z,20.10
2018-05-04T17:58:13.669Z,20.00
2018-05-04T18:00:41.344Z,19.60
2018-05-04T18:03:09.002Z,19.50
2018-05-04T18:05:36.691Z,19.30
2018-05-04T18:08:04.354Z,19.10
2018-05-04T18:10:32.052Z,18.80
2018-05-04T18:12:59.713Z,18.70
2018-05-04T18:15:27.411Z,18.50
2018-05-04T18:17:55.072Z,18.30
2018-05-04T18:20:22.757Z,18.10
2018-05-04T18:22:50.403Z,18.00
2018-05-04T18:25:18.077Z,17.80
2018-05-04T18:27:45.780Z,17.70
2018-05-04T18:30:13.448Z,17.50
2018-05-04T18:32:41.105Z,17.40
2018-05-04T18:35:09.946Z,17.20
2018-05-04T18:37:38.612Z,17.10
2018-05-04T18:40:06.322Z,16.90
2018-05-04T18:42:34.755Z,16.60
2018-05-04T18:45:02.552Z,16.60
2018-05-04T18:47:30.181Z,16.30
2018-05-04T18:49:57.848Z,16.20
2018-05-04T18:52:25.529Z,16.20
2018-05-04T18:54:53.994Z,15.80
2018-05-04T18:57:21.679Z,15.70
2018-05-04T18:59:49.338Z,15.60
2018-05-04T19:02:22.737Z,15.50
2018-05-04T19:04:51.157Z,15.30
2018-05-04T19:07:19.614Z,15.20
2018-05-04T19:09:47.271Z,15.20
2018-05-04T19:12:14.946Z,15.20
2018-05-04T19:14:42.636Z,15.00
2018-05-04T19:17:10.325Z,14.80
2018-05-04T19:19:38.570Z,14.70
2018-05-04T19:22:06.265Z,14.70
2018-05-04T19:24:33.914Z,14.60
2018-05-04T19:27:01.583Z,14.50
2018-05-04T19:29:29.262Z,14.50
2018-05-04T19:31:56.954Z,14.40
2018-05-04T19:34:24.684Z,14.40
2018-05-04T19:36:52.330Z,14.30
2018-05-04T19:39:20.039Z,14.20
2018-05-04T19:41:47.705Z,14.10
2018-05-04T19:44:15.365Z,14.10
2018-05-04T19:46:43.025Z,14.00
2018-05-04T19:49:10.793Z,13.90
2018-05-04T19:51:39.730Z,13.80
2018-05-04T19:54:07.403Z,13.70
2018-05-04T19:56:35.062Z,13.60
2018-05-04T19:59:02.806Z,13.50
2018-05-04T20:01:30.467Z,13.50
2018-05-04T20:03:58.154Z,13.50
2018-05-04T20:06:25.796Z,13.30
2018-05-04T20:08:53.481Z,13.20
2018-05-04T20:11:21.902Z,13.10
2018-05-04T20:13:50.329Z,13.00
2018-05-04T20:16:18.016Z,12.90
2018-05-04T20:18:46.431Z,12.80
2018-05-04T20:21:14.106Z,12.80
2018-05-04T20:23:41.778Z,12.80
2018-05-04T20:26:10.199Z,12.80
2018-05-04T20:28:39.649Z,12.70
2018-05-04T20:31:07.334Z,12.80
2018-05-04T20:33:34.980Z,12.80
2018-05-04T20:36:02.662Z,12.70
2018-05-04T20:38:30.305Z,12.60
2018-05-04T20:40:57.998Z,12.50
2018-05-04T20:43:26.431Z,12.40
2018-05-04T20:45:54.131Z,12.50
2018-05-04T20:48:22.560Z,12.40
2018-05-04T20:50:50.209Z,12.30
2018-05-04T20:53:17.894Z,12.40
2018-05-04T20:55:45.562Z,12.30
2018-05-04T20:58:13.250Z,12.20
2018-05-04T21:00:40.914Z,12.20
2018-05-04T21:03:10.285Z,12.10
2018-05-04T21:05:37.947Z,12.10
2018-05-04T21:08:05.618Z,12.00
2018-05-04T21:10:33.269Z,11.90
2018-05-04T21:13:00.961Z,11.90
2018-05-04T21:15:28.622Z,11.90
2018-05-04T21:17:56.291Z,11.80
2018-05-04T21:20:23.941Z,11.80
2018-05-04T21:22:51.627Z,11.80
2018-05-04T21:25:20.062Z,11.70
2018-05-04T21:27:47.758Z,11.70
2018-05-04T21:30:16.175Z,11.60
2018-05-04T21:32:43.869Z,11.60
2018-05-04T21:35:11.526Z,11.60
2018-05-04T21:37:40.240Z,11.50
2018-05-04T21:40:09.622Z,11.30
2018-05-04T21:42:37.268Z,11.30
2018-05-04T21:45:04.939Z,11.30
2018-05-04T21:47:32.597Z,11.20
2018-05-04T21:50:00.269Z,11.10
2018-05-04T21:52:27.931Z,11.00
2018-05-04T21:54:55.599Z,11.00
2018-05-04T21:57:23.289Z,10.90
2018-05-04T21:59:51.738Z,10.90
2018-05-04T22:02:19.402Z,10.80
2018-05-04T22:04:47.163Z,10.90
2018-05-04T22:07:14.767Z,10.80
2018-05-04T22:09:42.445Z,10.80
2018-05-04T22:12:10.100Z,10.70
2018-05-04T22:14:38.296Z,10.60
2018-05-04T22:17:05.944Z,10.60
2018-05-04T22:19:33.635Z,10.50
2018-05-04T22:22:01.287Z,10.40
2018-05-04T22:24:28.944Z,10.40
2018-05-04T22:26:56.622Z,10.30
2018-05-04T22:29:24.283Z,10.30
2018-05-04T22:31:51.966Z,10.30
2018-05-04T22:34:20.369Z,10.10
2018-05-04T22:36:48.058Z,10.10
2018-05-04T22:39:15.782Z,10.10
2018-05-04T22:41:43.424Z,10.10
2018-05-04T22:44:11.832Z,10.00
2018-05-04T22:46:40.097Z,9.90
2018-05-04T22:49:09.232Z,9.90
2018-05-04T22:51:36.913Z,9.90
2018-05-04T22:54:04.569Z,9.90
2018-05-04T22:56:32.286Z,9.90
2018-05-04T22:58:59.921Z,9.80
2018-05-04T23:01:27.593Z,9.70
2018-05-04T23:03:56.022Z,9.70
2018-05-04T23:06:23.709Z,9.70
2018-05-04T23:08:51.366Z,9.70
2018-05-04T23:11:19.053Z,9.60
2018-05-04T23:13:47.477Z,9.50
2018-05-04T23:16:15.129Z,9.50
2018-05-04T23:18:42.811Z,9.40
2018-05-04T23:21:10.471Z,9.40
2018-05-04T23:23:39.268Z,9.30
2018-05-04T23:26:06.933Z,9.30
2018-05-04T23:28:34.605Z,9.20
2018-05-04T23:31:02.256Z,9.20
2018-05-04T23:33:29.930Z,9.20
2018-05-04T23:35:57.585Z,9.10
2018-05-04T23:38:25.270Z,9.00
2018-05-04T23:40:53.687Z,9.00
2018-05-04T23:43:21.369Z,9.00
2018-05-04T23:45:49.021Z,9.00
2018-05-04T23:48:16.707Z,8.90
2018-05-04T23:50:44.365Z,8.90
2018-05-04T23:53:12.065Z,8.80
2018-05-04T23:55:40.514Z,8.70
2018-05-04T23:58:09.409Z,8.70
